Time;durP1;ratioP1;P1;durP2;ratioP2;P2;SDS_P1;SDS_P2;PMS_P1;PMS_P2;Temp;Humidity;BMP_temperature;BMP_pressure;BME280_temperature;BME280_humidity;BME280_pressure;Samples;Min_cycle;Max_cycle;Signal;HPM_P1;HPM_P2
2022/10/08 00:01:09;;;;;;;11.90;8.60;;;;;;;20.86;52.64;99985.72;4193739;28;20226;-33
2022/10/08 00:03:15;;;;;;;14.47;8.27;;;;;;;20.66;52.60;100064.25;4191830;28;20238;-32
2022/10/08 00:05:17;;;;;;;14.47;9.40;;;;;;;21.23;51.95;100014.75;4172437;28;20251;-33
2022/10/08 00:07:18;;;;;;;13.10;8.50;;;;;;;21.62;50.57;100023.50;4191331;28;20843;-33
2022/10/08 00:09:20;;;;;;;11.87;9.20;;;;;;;21.97;49.74;100018.31;4190044;28;20250;-32
2022/10/08 00:11:25;;;;;;;17.83;9.07;;;;;;;22.18;49.46;100025.09;4192965;28;20321;-33
2022/10/08 00:13:39;;;;;;;14.57;9.17;;;;;;;22.27;49.23;100029.16;4195882;28;20235;-33
2022/10/08 00:15:41;;;;;;;15.30;8.97;;;;;;;22.22;49.34;100036.28;4191346;28;20268;-33
2022/10/08 00:17:43;;;;;;;15.60;8.87;;;;;;;20.44;53.58;100086.19;4189053;28;20266;-32
2022/10/08 00:19:44;;;;;;;12.70;8.73;;;;;;;20.47;53.33;100068.75;4195496;28;20268;-33
2022/10/08 00:21:49;;;;;;;15.37;8.90;;;;;;;19.70;55.43;100076.69;4194296;28;20239;-33
2022/10/08 00:23:52;;;;;;;11.00;8.33;;;;;;;19.33;55.02;100106.81;4193123;28;20270;-33
2022/10/08 00:25:53;;;;;;;14.43;8.83;;;;;;;20.96;52.81;100015.81;4196710;28;20269;-33
2022/10/08 00:27:55;;;;;;;15.87;9.87;;;;;;;21.46;51.06;100017.63;4188748;28;20253;-33
2022/10/08 00:29:56;;;;;;;15.37;9.33;;;;;;;21.72;50.36;100050.88;4193681;28;20223;-33
2022/10/08 00:31:58;;;;;;;13.43;8.87;;;;;;;22.22;49.39;100022.75;4194911;28;20230;-33
2022/10/08 00:34:04;;;;;;;15.50;9.00;;;;;;;22.17;49.60;100041.56;4197233;28;20242;-33
2022/10/08 00:36:10;;;;;;;15.10;9.90;;;;;;;22.16;49.42;100039.94;4194460;28;20234;-33
2022/10/08 00:38:12;;;;;;;15.93;9.00;;;;;;;21.70;49.91;100071.94;4191196;28;20265;-33
2022/10/08 00:40:14;;;;;;;16.07;9.17;;;;;;;21.43;50.91;100077.59;4195246;28;20269;-33
2022/10/08 00:42:16;;;;;;;14.67;8.90;;;;;;;21.17;51.52;100094.88;4190577;28;20266;-33
2022/10/08 00:44:42;;;;;;;15.43;9.77;;;;;;;21.38;50.50;100087.41;4197559;28;20923;-33
2022/10/08 00:46:49;;;;;;;17.10;9.40;;;;;;;21.37;50.88;100097.41;4194171;28;20532;-33
2022/10/08 00:49:11;;;;;;;17.07;9.80;;;;;;;20.87;51.54;100129.78;4200030;28;20290;-33
2022/10/08 00:51:12;;;;;;;12.90;10.17;;;;;;;21.18;51.45;100083.84;4188744;28;20263;-33
2022/10/08 00:53:14;;;;;;;14.27;9.90;;;;;;;20.59;53.09;100114.81;4197440;28;20705;-33
2022/10/08 00:55:19;;;;;;;14.00;9.50;;;;;;;20.64;52.76;100108.75;4188617;28;20326;-33
2022/10/08 00:57:21;;;;;;;12.70;9.33;;;;;;;21.34;51.69;100046.47;4184417;28;20258;-33
2022/10/08 00:59:23;;;;;;;18.63;9.63;;;;;;;20.98;51.74;100104.81;4191561;28;20751;-33
2022/10/08 01:01:25;;;;;;;15.40;10.17;;;;;;;21.98;50.09;100029.97;4193870;28;20841;-33
2022/10/08 01:03:26;;;;;;;14.13;9.63;;;;;;;21.28;51.38;100086.06;4174327;28;20235;-33
2022/10/08 01:05:41;;;;;;;16.53;9.83;;;;;;;21.98;50.57;100033.47;4182993;28;20315;-33
2022/10/08 01:07:58;;;;;;;15.67;9.97;;;;;;;21.65;51.22;100071.78;4193353;28;20521;-33
2022/10/08 01:10:08;;;;;;;13.67;9.80;;;;;;;21.19;52.17;100092.78;4186261;28;20223;-33
2022/10/08 01:12:35;;;;;;;14.87;9.97;;;;;;;21.51;51.01;100081.88;4195147;28;20915;-33
2022/10/08 01:14:53;;;;;;;15.23;10.63;;;;;;;21.60;50.96;100087.84;4194934;28;20266;-33
2022/10/08 01:17:10;;;;;;;13.70;9.50;;;;;;;21.80;50.91;100049.75;4186397;28;20262;-33
2022/10/08 01:19:23;;;;;;;11.87;8.57;;;;;;;21.82;50.76;100061.19;4191354;28;20321;-33
2022/10/08 01:21:42;;;;;;;14.17;9.70;;;;;;;21.71;51.20;100077.13;4194668;28;20258;-33
2022/10/08 01:23:59;;;;;;;13.97;8.57;;;;;;;21.17;52.57;100109.25;4189464;28;20239;-33
2022/10/08 01:26:36;;;;;;;17.80;9.60;;;;;;;20.94;53.29;100108.97;4195019;28;20262;-33
2022/10/08 01:28:47;;;;;;;13.97;8.20;;;;;;;21.32;52.43;100081.84;4158011;28;20267;-33
2022/10/08 01:30:57;;;;;;;10.83;7.70;;;;;;;20.95;53.40;100100.66;4194479;28;20227;-33
2022/10/08 01:33:04;;;;;;;9.00;7.60;;;;;;;21.12;53.34;100082.03;4193227;28;20250;-33
2022/10/08 01:35:12;;;;;;;10.17;7.13;;;;;;;22.04;51.60;100038.00;4193956;28;20230;-33
2022/10/08 01:37:28;;;;;;;9.97;7.50;;;;;;;21.81;51.89;100049.50;4188362;28;20230;-33
2022/10/08 01:39:34;;;;;;;12.47;7.10;;;;;;;21.51;53.14;100074.59;4185268;28;20244;-33
2022/10/08 01:41:37;;;;;;;11.00;6.87;;;;;;;21.55;52.82;100066.84;4188289;28;20251;-33
2022/10/08 01:43:44;;;;;;;12.60;6.77;;;;;;;21.53;52.97;100063.56;4192858;28;20226;-33
2022/10/08 01:45:55;;;;;;;13.37;7.63;;;;;;;21.49;53.04;100065.03;4188109;28;20254;-33
2022/10/08 01:48:03;;;;;;;10.20;7.27;;;;;;;20.93;53.92;100105.41;4193465;28;20707;-33
2022/10/08 01:50:16;;;;;;;11.53;7.30;;;;;;;21.30;53.48;100053.38;4185897;28;20669;-33
2022/10/08 01:52:25;;;;;;;12.20;7.63;;;;;;;21.68;52.63;100053.22;4191204;28;20232;-33
2022/10/08 01:54:31;;;;;;;12.17;7.73;;;;;;;22.00;52.48;100025.97;4182683;28;20282;-33
2022/10/08 01:56:36;;;;;;;10.30;7.43;;;;;;;21.62;52.55;100050.56;4191052;28;20568;-33
2022/10/08 01:58:48;;;;;;;9.37;7.37;;;;;;;21.93;52.47;100022.50;4194986;28;21182;-33
2022/10/08 02:00:54;;;;;;;14.13;7.77;;;;;;;21.94;51.89;100028.78;4194225;28;20231;-33
2022/10/08 02:02:55;;;;;;;10.03;7.77;;;;;;;21.91;52.04;100038.97;4193213;28;20667;-33
2022/10/08 02:04:57;;;;;;;12.70;6.93;;;;;;;21.81;52.09;100046.81;4190062;28;20234;-33
2022/10/08 02:07:03;;;;;;;13.80;7.60;;;;;;;22.21;51.38;100026.53;4182506;28;20270;-33
2022/10/08 02:09:05;;;;;;;10.10;7.13;;;;;;;22.50;50.48;100016.75;4187979;28;20318;-33
2022/10/08 02:11:07;;;;;;;14.73;8.17;;;;;;;21.85;51.95;100058.00;4190100;28;20241;-33
2022/10/08 02:13:10;;;;;;;16.27;8.10;;;;;;;22.06;51.78;100046.72;4187197;28;20262;-33
2022/10/08 02:16:03;;;;;;;11.43;7.67;;;;;;;22.15;51.59;100049.94;4191405;28;20261;-33
2022/10/08 02:18:13;;;;;;;11.07;7.57;;;;;;;22.54;50.79;100033.38;4189494;28;20615;-33
2022/10/08 02:20:30;;;;;;;12.77;7.40;;;;;;;21.76;52.24;100079.13;4191505;28;25781;-33
2022/10/08 02:22:36;;;;;;;14.00;7.83;;;;;;;22.50;50.79;100037.63;4181900;28;20799;-33
2022/10/08 02:24:44;;;;;;;10.87;7.63;;;;;;;22.64;50.62;100029.06;4191104;28;21375;-33
2022/10/08 02:26:49;;;;;;;11.27;7.40;;;;;;;22.58;50.26;100029.97;4197243;28;20687;-33
2022/10/08 02:29:05;;;;;;;13.53;8.67;;;;;;;22.39;50.73;100053.59;4188023;28;20267;-33
2022/10/08 02:31:15;;;;;;;10.47;8.10;;;;;;;22.27;50.93;100052.69;4192633;28;20258;-33
2022/10/08 02:33:35;;;;;;;12.80;8.00;;;;;;;22.24;51.56;100072.13;4175181;28;20228;-33
2022/10/08 02:35:45;;;;;;;9.77;7.33;;;;;;;22.04;51.76;100077.78;4188331;28;20948;-33
2022/10/08 02:38:12;;;;;;;10.13;7.70;;;;;;;22.79;50.36;100036.75;4165298;28;20802;-33
2022/10/08 02:40:16;;;;;;;10.00;7.13;;;;;;;21.91;51.36;100068.75;4193358;28;20634;-33
2022/10/08 02:42:23;;;;;;;10.23;8.20;;;;;;;21.79;52.52;100069.75;4190288;28;20259;-33
2022/10/08 02:44:31;;;;;;;12.53;7.73;;;;;;;22.30;51.23;100059.56;4191112;28;20310;-33
2022/10/08 02:46:39;;;;;;;10.53;8.17;;;;;;;22.65;50.64;100041.53;4193829;28;20284;-33
2022/10/08 02:48:46;;;;;;;10.57;8.33;;;;;;;21.70;51.78;100110.66;4193514;28;20259;-33
2022/10/08 02:50:51;;;;;;;13.03;8.47;;;;;;;21.88;52.23;100085.47;4186561;28;20322;-33
2022/10/08 02:52:53;;;;;;;12.17;8.40;;;;;;;22.00;51.59;100072.00;4178252;28;20668;-33
2022/10/08 02:55:00;;;;;;;11.10;8.40;;;;;;;22.42;50.67;100058.56;4191630;28;20309;-33
2022/10/08 02:57:26;;;;;;;11.07;8.47;;;;;;;22.54;50.36;100053.19;4193189;28;20254;-33
2022/10/08 02:59:28;;;;;;;11.57;8.20;;;;;;;22.86;49.73;100041.22;4193549;28;20273;-33
2022/10/08 03:01:43;;;;;;;11.17;7.70;;;;;;;22.62;50.16;100068.28;4190266;28;20238;-33
2022/10/08 03:03:56;;;;;;;9.47;7.67;;;;;;;22.87;49.70;100057.25;4191581;28;20234;-33
2022/10/08 03:06:01;;;;;;;12.13;7.73;;;;;;;22.16;50.80;100086.78;4187463;28;20306;-33
2022/10/08 03:08:04;;;;;;;12.27;8.87;;;;;;;21.51;52.09;100133.28;4187494;28;20233;-33
2022/10/08 03:10:08;;;;;;;12.90;7.77;;;;;;;22.28;50.52;100073.31;4192914;28;20270;-33
2022/10/08 03:12:09;;;;;;;13.07;7.90;;;;;;;22.77;49.59;100057.81;4187981;28;20337;-33
2022/10/08 03:14:13;;;;;;;10.70;8.33;;;;;;;22.97;49.13;100051.28;4175940;28;20236;-33
2022/10/08 03:16:19;;;;;;;13.57;8.70;;;;;;;22.31;50.15;100104.56;4190997;28;20261;-33
2022/10/08 03:18:23;;;;;;;10.63;7.90;;;;;;;22.04;50.52;100118.41;4171227;28;20231;-33
2022/10/08 03:20:25;;;;;;;17.20;9.37;;;;;;;22.16;50.71;100099.53;4190871;28;20338;-33
2022/10/08 03:22:29;;;;;;;12.77;8.60;;;;;;;22.73;49.69;100072.09;4191532;28;20342;-33
2022/10/08 03:24:31;;;;;;;10.40;8.03;;;;;;;23.14;48.72;100060.38;4174263;28;20252;-33
2022/10/08 03:26:32;;;;;;;14.03;7.87;;;;;;;21.92;50.58;100135.41;4187786;28;20294;-33
2022/10/08 03:28:34;;;;;;;11.53;7.87;;;;;;;21.98;50.88;100132.84;4193554;28;20285;-33
2022/10/08 03:30:36;;;;;;;11.27;7.67;;;;;;;22.26;50.40;100116.88;4191170;28;20330;-33
2022/10/08 03:32:37;;;;;;;10.10;7.87;;;;;;;22.41;49.78;100094.84;4192649;28;20867;-33
2022/10/08 03:34:39;;;;;;;11.80;8.20;;;;;;;22.40;49.79;100108.59;4190858;28;20266;-33
2022/10/08 03:36:41;;;;;;;13.60;7.60;;;;;;;22.54;49.84;100101.97;4181037;28;20270;-33
2022/10/08 03:38:42;;;;;;;12.13;7.73;;;;;;;21.86;50.70;100143.59;4194638;28;20234;-33
2022/10/08 03:40:54;;;;;;;10.17;7.93;;;;;;;21.84;50.72;100156.53;4194198;28;20254;-33
2022/10/08 03:42:55;;;;;;;10.00;7.40;;;;;;;22.10;50.63;100139.16;4197215;28;20273;-33
2022/10/08 03:45:00;;;;;;;10.17;7.30;;;;;;;22.26;50.40;100121.47;4194314;28;20267;-33
2022/10/08 03:47:01;;;;;;;10.77;7.03;;;;;;;22.10;50.49;100131.03;4190489;28;20246;-33
2022/10/08 03:49:03;;;;;;;11.57;7.70;;;;;;;22.93;49.15;100083.47;4195584;28;20679;-33
2022/10/08 03:51:13;;;;;;;12.27;7.63;;;;;;;22.50;49.81;100118.91;4193765;28;20238;-33
2022/10/08 03:53:14;;;;;;;13.50;8.30;;;;;;;22.67;49.09;100109.06;4193140;28;20258;-33
2022/10/08 03:55:16;;;;;;;10.23;7.50;;;;;;;22.17;50.22;100141.78;4183071;28;20327;-33
2022/10/08 03:57:18;;;;;;;12.30;7.23;;;;;;;22.53;49.15;100118.44;4190416;28;20255;-33
2022/10/08 03:59:20;;;;;;;13.17;7.73;;;;;;;21.94;50.43;100156.84;4195234;28;20308;-33
2022/10/08 04:01:22;;;;;;;13.60;8.37;;;;;;;21.78;51.26;100177.19;4194966;28;20231;-34
2022/10/08 04:03:26;;;;;;;10.80;8.30;;;;;;;22.35;50.13;100130.13;4197295;28;20255;-31
2022/10/08 04:05:27;;;;;;;10.60;8.30;;;;;;;22.49;48.96;100120.78;4186904;28;20267;-30
2022/10/08 04:07:29;;;;;;;10.40;7.90;;;;;;;22.61;49.21;100129.78;4186926;28;20339;-32
2022/10/08 04:09:30;;;;;;;9.67;7.60;;;;;;;22.54;49.02;100136.34;4194105;28;20258;-33
2022/10/08 04:11:32;;;;;;;12.70;8.53;;;;;;;22.72;48.88;100121.94;4191775;28;20790;-31
2022/10/08 04:13:35;;;;;;;11.73;7.50;;;;;;;22.59;49.20;100141.91;4193500;28;20243;-33
2022/10/08 04:15:37;;;;;;;13.00;7.27;;;;;;;21.83;50.52;100198.16;4191743;28;20263;-30
2022/10/08 04:17:42;;;;;;;12.60;7.97;;;;;;;22.32;49.73;100160.38;4193760;28;20237;-32
2022/10/08 04:19:43;;;;;;;9.07;7.20;;;;;;;22.08;50.14;100174.59;4190194;28;20247;-32
2022/10/08 04:21:45;;;;;;;10.43;7.67;;;;;;;22.40;49.39;100141.94;4194280;28;20227;-31
2022/10/08 04:23:50;;;;;;;10.53;7.80;;;;;;;21.97;50.11;100182.63;4195543;28;20255;-32
2022/10/08 04:25:53;;;;;;;12.83;7.13;;;;;;;22.49;49.04;100137.06;4194945;28;20258;-32
2022/10/08 04:27:54;;;;;;;14.07;7.10;;;;;;;21.92;50.20;100194.94;4192073;28;20339;-34
2022/10/08 04:29:56;;;;;;;13.33;6.87;;;;;;;22.19;49.66;100159.47;4195158;28;20715;-31
2022/10/08 04:31:57;;;;;;;11.10;7.00;;;;;;;22.33;49.51;100153.94;4191968;28;20257;-31
2022/10/08 04:33:59;;;;;;;13.17;7.23;;;;;;;21.85;50.03;100190.66;4185511;28;20488;-32
2022/10/08 04:36:06;;;;;;;12.37;7.33;;;;;;;22.28;49.40;100160.84;4191928;28;20251;-31
2022/10/08 04:38:08;;;;;;;8.83;7.23;;;;;;;22.44;48.62;100148.56;4192579;28;20255;-32
2022/10/08 04:40:09;;;;;;;9.60;7.30;;;;;;;22.73;47.82;100134.44;4195473;28;20250;-33
2022/10/08 04:42:11;;;;;;;10.70;7.23;;;;;;;22.40;48.54;100163.59;4194730;28;20356;-32
2022/10/08 04:44:13;;;;;;;9.67;6.53;;;;;;;22.34;48.24;100169.97;4188290;28;20310;-32
2022/10/08 04:46:17;;;;;;;10.50;6.57;;;;;;;22.62;48.21;100160.41;4192262;28;20350;-32
2022/10/08 04:48:18;;;;;;;12.13;6.63;;;;;;;21.95;48.94;100192.84;4195048;28;20231;-33
2022/10/08 04:50:20;;;;;;;11.80;6.83;;;;;;;22.33;48.72;100171.00;4190037;28;20294;-32
2022/10/08 04:52:22;;;;;;;12.00;6.63;;;;;;;22.51;48.00;100153.06;4193744;28;20334;-30
2022/10/08 04:54:23;;;;;;;10.40;6.63;;;;;;;21.79;49.32;100210.50;4193099;28;20951;-31
2022/10/08 04:56:28;;;;;;;10.47;7.40;;;;;;;22.02;48.95;100185.50;4187363;28;20232;-32
2022/10/08 04:58:30;;;;;;;9.37;6.90;;;;;;;22.11;48.91;100186.84;4194989;28;20262;-32
2022/10/08 05:00:34;;;;;;;10.77;7.30;;;;;;;21.96;48.98;100186.38;4186544;28;20874;-33
2022/10/08 05:02:36;;;;;;;9.70;6.23;;;;;;;22.03;48.97;100187.97;4197680;28;20227;-32
2022/10/08 05:04:37;;;;;;;14.07;6.70;;;;;;;22.06;48.58;100184.81;4193633;28;20601;-33
2022/10/08 05:06:39;;;;;;;10.67;7.27;;;;;;;22.22;48.56;100183.41;4186209;28;20271;-31
2022/10/08 05:08:42;;;;;;;9.83;6.60;;;;;;;21.51;49.62;100225.25;4194945;28;20793;-32
2022/10/08 05:10:48;;;;;;;11.73;7.30;;;;;;;21.81;49.46;100203.78;4191436;28;20635;-32
2022/10/08 05:12:49;;;;;;;13.90;7.07;;;;;;;21.55;49.42;100210.25;4194464;28;20660;-32
2022/10/08 05:14:51;;;;;;;13.77;7.00;;;;;;;22.14;48.44;100169.34;4178656;28;20254;-31
2022/10/08 05:16:53;;;;;;;14.77;7.30;;;;;;;21.87;48.69;100191.28;4190009;28;20281;-32
2022/10/08 05:18:55;;;;;;;14.20;7.13;;;;;;;21.19;49.74;100233.38;4197570;28;20223;-32
2022/10/08 05:21:01;;;;;;;10.67;6.77;;;;;;;21.93;48.74;100187.66;4191478;28;20277;-31
2022/10/08 05:23:02;;;;;;;13.00;7.40;;;;;;;22.26;47.59;100159.41;4190945;28;20255;-32
2022/10/08 05:25:05;;;;;;;10.43;7.47;;;;;;;21.75;48.16;100212.81;4193861;28;20318;-31
2022/10/08 05:27:06;;;;;;;11.03;6.93;;;;;;;21.46;49.20;100228.66;4190718;28;20250;-32
2022/10/08 05:29:09;;;;;;;10.47;6.53;;;;;;;21.24;49.87;100230.03;4194505;28;20226;-33
2022/10/08 05:31:11;;;;;;;10.87;6.37;;;;;;;22.10;47.82;100172.50;4190527;28;20250;-32
2022/10/08 05:33:12;;;;;;;12.10;7.27;;;;;;;22.05;47.77;100195.84;4194934;28;20227;-33
2022/10/08 05:35:14;;;;;;;12.23;7.50;;;;;;;22.03;47.42;100204.22;4191472;28;20292;-33
2022/10/08 05:37:16;;;;;;;9.37;6.93;;;;;;;21.35;48.59;100245.56;4186043;28;20310;-32
2022/10/08 05:39:17;;;;;;;15.50;7.27;;;;;;;20.62;50.22;100266.47;4188044;28;20259;-32
2022/10/08 05:41:21;;;;;;;10.63;6.47;;;;;;;21.01;49.49;100250.34;4192048;28;20260;-31
2022/10/08 05:43:23;;;;;;;10.20;7.67;;;;;;;21.43;48.92;100220.97;4195154;28;20270;-31
2022/10/08 05:45:25;;;;;;;10.67;7.13;;;;;;;21.26;49.26;100228.78;4192107;28;20317;-33
2022/10/08 05:47:26;;;;;;;11.93;6.87;;;;;;;21.11;49.67;100244.47;4192233;28;20234;-33
2022/10/08 05:49:28;;;;;;;10.70;7.93;;;;;;;20.95;49.58;100254.72;4181812;28;20703;-30
2022/10/08 05:51:30;;;;;;;12.00;7.00;;;;;;;20.92;49.59;100257.84;4194589;28;20238;-31
2022/10/08 05:53:35;;;;;;;9.27;6.77;;;;;;;21.20;49.69;100232.34;4183747;28;20703;-32
2022/10/08 05:55:37;;;;;;;11.03;6.57;;;;;;;20.20;51.21;100271.34;4190204;28;20886;-31
2022/10/08 05:57:39;;;;;;;11.27;7.40;;;;;;;21.06;49.99;100222.69;4192691;28;20251;-34
2022/10/08 05:59:40;;;;;;;9.70;7.53;;;;;;;21.47;48.96;100203.22;4190855;28;20725;-32
2022/10/08 06:01:42;;;;;;;14.13;9.13;;;;;;;20.34;51.20;100271.34;4193341;28;20727;-32
2022/10/08 06:03:49;;;;;;;10.77;8.13;;;;;;;21.31;49.05;100218.13;4191850;28;20600;-32
2022/10/08 06:05:51;;;;;;;12.87;7.60;;;;;;;21.35;48.81;100223.94;4184595;28;20266;-34
2022/10/08 06:07:56;;;;;;;14.27;8.60;;;;;;;20.97;49.47;100266.19;4188535;28;20687;-33
2022/10/08 06:09:57;;;;;;;14.70;7.23;;;;;;;21.42;48.88;100243.63;4196911;28;20843;-32
2022/10/08 06:11:59;;;;;;;12.93;8.10;;;;;;;20.61;50.14;100288.31;4186869;28;20264;-32
2022/10/08 06:14:03;;;;;;;17.77;9.00;;;;;;;21.33;49.07;100244.97;4193537;28;20715;-31
2022/10/08 06:16:10;;;;;;;11.23;8.30;;;;;;;21.01;49.73;100279.28;4189462;28;20228;-30
2022/10/08 06:18:11;;;;;;;12.07;7.30;;;;;;;21.50;49.03;100246.09;4187912;28;20309;-32
2022/10/08 06:20:13;;;;;;;12.20;7.37;;;;;;;20.51;50.64;100307.66;4186839;28;20627;-33
2022/10/08 06:22:15;;;;;;;10.93;7.50;;;;;;;21.39;49.24;100262.19;4184802;28;20952;-31
2022/10/08 06:24:17;;;;;;;13.00;7.77;;;;;;;21.66;48.55;100250.16;4193442;28;20266;-32
2022/10/08 06:26:20;;;;;;;13.53;8.20;;;;;;;21.60;48.64;100252.91;4185943;28;20277;-32
2022/10/08 06:28:22;;;;;;;14.17;7.93;;;;;;;21.44;48.76;100273.19;4190083;28;20869;-33
2022/10/08 06:30:24;;;;;;;11.20;8.20;;;;;;;21.25;49.15;100296.59;4195806;28;20239;-32
2022/10/08 06:32:25;;;;;;;10.97;7.30;;;;;;;21.11;49.60;100312.06;4175861;28;20587;-31
2022/10/08 06:34:27;;;;;;;12.50;8.20;;;;;;;21.48;49.16;100269.00;4193158;28;20319;-33
2022/10/08 06:36:29;;;;;;;11.57;7.97;;;;;;;21.34;49.50;100284.47;4183773;28;20248;-31
2022/10/08 06:38:32;;;;;;;12.93;7.47;;;;;;;21.49;49.00;100274.16;4183285;28;20319;-33
2022/10/08 06:40:40;;;;;;;12.80;7.67;;;;;;;21.04;49.72;100306.69;4190005;28;20271;-32
2022/10/08 06:42:41;;;;;;;13.97;7.47;;;;;;;21.22;49.29;100292.44;4190516;28;20310;-32
2022/10/08 06:44:43;;;;;;;13.97;7.77;;;;;;;21.32;49.14;100292.78;4198443;28;20267;-32
2022/10/08 06:46:45;;;;;;;13.43;9.47;;;;;;;21.20;49.53;100307.25;4189446;28;20242;-32
2022/10/08 06:48:47;;;;;;;16.87;11.27;;;;;;;21.21;49.18;100293.50;4190967;28;20240;-34
2022/10/08 06:50:57;;;;;;;13.47;8.97;;;;;;;21.31;49.34;100283.03;4186364;28;20247;-33
2022/10/08 06:52:59;;;;;;;14.20;9.23;;;;;;;21.14;49.74;100306.22;4194128;28;20647;-33
2022/10/08 06:55:00;;;;;;;15.27;8.17;;;;;;;20.81;50.29;100323.38;4170058;28;20267;-35
2022/10/08 06:57:02;;;;;;;12.10;7.73;;;;;;;21.34;48.90;100290.72;4191659;28;20230;-32
2022/10/08 06:59:05;;;;;;;11.40;8.93;;;;;;;21.14;49.31;100317.03;4187723;28;20306;-30
2022/10/08 07:01:09;;;;;;;13.50;8.30;;;;;;;21.26;49.36;100312.63;4193982;28;20238;-32
2022/10/08 07:03:11;;;;;;;13.50;8.13;;;;;;;21.25;49.15;100302.84;4189965;28;20259;-33
2022/10/08 07:05:12;;;;;;;11.00;7.20;;;;;;;20.47;50.87;100343.44;4182781;28;20258;-32
2022/10/08 07:07:14;;;;;;;12.03;8.93;;;;;;;20.83;50.22;100324.00;4187668;28;20263;-32
2022/10/08 07:09:16;;;;;;;15.07;10.13;;;;;;;21.61;48.59;100278.88;4178457;28;20255;-32
2022/10/08 07:11:18;;;;;;;14.17;10.67;;;;;;;21.73;48.30;100278.00;4185659;28;20700;-33
2022/10/08 07:13:20;;;;;;;15.40;11.17;;;;;;;21.36;48.98;100315.69;4191428;28;20318;-33
2022/10/08 07:15:22;;;;;;;13.40;9.93;;;;;;;21.57;48.84;100300.16;4193095;28;20317;-33
2022/10/08 07:17:25;;;;;;;10.80;7.40;;;;;;;21.34;49.07;100312.38;4189211;28;20251;-32
2022/10/08 07:19:26;;;;;;;11.17;7.70;;;;;;;21.60;48.79;100309.72;4190328;28;20822;-33
2022/10/08 07:21:29;;;;;;;11.40;7.63;;;;;;;21.45;49.07;100321.66;4191568;28;20939;-31
2022/10/08 07:23:30;;;;;;;11.23;7.17;;;;;;;21.99;47.84;100286.94;4197503;28;20290;-33
2022/10/08 07:25:32;;;;;;;9.77;7.13;;;;;;;21.68;48.00;100321.13;4188392;28;20322;-32
2022/10/08 07:27:34;;;;;;;13.67;7.77;;;;;;;21.66;48.03;100330.50;4186375;28;20282;-33
2022/10/08 07:29:35;;;;;;;13.67;8.70;;;;;;;21.89;47.80;100319.91;4198320;28;20400;-34
2022/10/08 07:31:38;;;;;;;16.50;9.50;;;;;;;21.77;47.66;100342.53;4194541;28;20759;-31
2022/10/08 07:33:39;;;;;;;12.20;7.40;;;;;;;21.06;48.93;100385.72;4194677;28;20258;-32
2022/10/08 07:35:41;;;;;;;13.80;7.83;;;;;;;21.46;48.93;100361.19;4190544;28;20235;-31
2022/10/08 07:37:43;;;;;;;13.87;6.73;;;;;;;21.44;48.32;100359.75;4188441;28;20259;-32
2022/10/08 07:39:44;;;;;;;12.23;6.23;;;;;;;21.64;48.25;100351.53;4189716;28;20258;-33
2022/10/08 07:41:48;;;;;;;13.40;7.07;;;;;;;21.20;48.65;100366.72;4196182;28;20783;-32
2022/10/08 07:43:54;;;;;;;10.70;5.90;;;;;;;21.36;48.60;100374.38;4194735;28;20255;-31
2022/10/08 07:45:56;;;;;;;14.03;7.97;;;;;;;21.17;48.74;100385.06;4191379;28;20605;-31
2022/10/08 07:47:58;;;;;;;14.03;7.50;;;;;;;21.49;48.42;100359.94;4197134;28;20778;-32
2022/10/08 07:49:59;;;;;;;15.77;7.40;;;;;;;21.46;48.52;100373.88;4184918;28;20242;-32
2022/10/08 07:52:01;;;;;;;12.87;6.93;;;;;;;21.73;48.55;100329.44;4189029;28;20243;-34
2022/10/08 07:54:06;;;;;;;13.23;6.07;;;;;;;21.58;48.29;100355.09;4193816;28;20747;-31
2022/10/08 07:56:09;;;;;;;14.43;6.10;;;;;;;21.39;48.40;100375.78;4192587;28;20230;-32
2022/10/08 07:58:12;;;;;;;13.63;5.43;;;;;;;20.89;48.52;100388.00;4196606;28;20580;-34
2022/10/08 08:00:13;;;;;;;10.83;4.57;;;;;;;20.92;48.51;100384.91;4192975;28;20313;-31
2022/10/08 08:02:15;;;;;;;5.47;4.33;;;;;;;21.34;47.33;100355.66;4195518;28;20258;-31
2022/10/08 08:04:17;;;;;;;9.47;5.27;;;;;;;21.43;47.37;100366.22;4192727;28;20886;-31
2022/10/08 08:06:18;;;;;;;8.87;4.53;;;;;;;21.00;47.15;100402.78;4192840;28;20321;-31
2022/10/08 08:08:23;;;;;;;9.37;3.90;;;;;;;21.55;46.19;100367.19;4192304;28;20330;-31
2022/10/08 08:10:25;;;;;;;7.70;4.23;;;;;;;21.00;47.07;100405.47;4192908;28;20270;-31
2022/10/08 08:12:26;;;;;;;7.07;4.13;;;;;;;21.65;45.56;100362.16;4187523;28;20313;-31
2022/10/08 08:14:28;;;;;;;11.57;4.13;;;;;;;21.65;45.42;100362.16;4196231;28;20261;-31
2022/10/08 08:16:30;;;;;;;7.17;3.23;;;;;;;21.84;45.69;100359.53;4189924;28;20231;-31
2022/10/08 08:18:34;;;;;;;6.27;3.53;;;;;;;21.91;45.30;100361.13;4176746;28;20263;-32
2022/10/08 08:20:36;;;;;;;9.70;3.30;;;;;;;22.40;44.21;100341.59;4188642;28;20254;-31
2022/10/08 08:22:38;;;;;;;5.37;3.10;;;;;;;21.67;44.21;100408.78;4191364;28;20227;-33
2022/10/08 08:24:39;;;;;;;7.53;4.23;;;;;;;21.97;43.90;100391.94;4194065;28;20723;-30
2022/10/08 08:26:42;;;;;;;8.53;4.90;;;;;;;22.31;43.99;100375.47;4192181;28;20688;-32
2022/10/08 08:28:44;;;;;;;9.07;4.67;;;;;;;21.34;43.92;100441.34;4192627;28;20331;-30
2022/10/08 08:30:46;;;;;;;8.30;4.07;;;;;;;21.27;44.43;100449.47;4195676;28;20231;-31
2022/10/08 08:32:47;;;;;;;6.00;3.47;;;;;;;21.43;43.86;100439.25;4191966;28;20234;-30
2022/10/08 08:34:50;;;;;;;5.90;3.13;;;;;;;21.14;44.28;100458.50;4191448;28;20227;-30
2022/10/08 08:36:52;;;;;;;7.23;3.67;;;;;;;21.07;43.98;100456.81;4196200;28;20786;-32
2022/10/08 08:38:55;;;;;;;8.50;2.67;;;;;;;21.46;43.61;100427.97;4193567;28;20229;-32
2022/10/08 08:41:07;;;;;;;6.63;2.80;;;;;;;21.08;44.77;100456.63;4197956;28;20641;-32
2022/10/08 08:43:15;;;;;;;6.73;3.00;;;;;;;21.34;43.90;100447.63;4189868;28;20242;-32
2022/10/08 08:45:21;;;;;;;6.90;3.00;;;;;;;21.61;43.88;100441.25;4192478;28;20331;-32
2022/10/08 08:47:51;;;;;;;8.60;3.20;;;;;;;21.05;43.73;100462.44;4195442;28;20762;-31
2022/10/08 08:49:59;;;;;;;8.67;3.40;;;;;;;21.48;43.48;100447.56;4179237;28;20255;-33
2022/10/08 08:52:03;;;;;;;11.77;5.43;;;;;;;21.72;43.35;100438.72;4188463;28;20258;-32
2022/10/08 08:54:05;;;;;;;8.53;4.20;;;;;;;21.53;43.92;100440.44;4189684;28;20225;-33
2022/10/08 08:56:13;;;;;;;8.97;3.60;;;;;;;22.23;42.67;100409.03;4187317;28;20238;-32
2022/10/08 08:58:49;;;;;;;8.17;3.17;;;;;;;22.71;41.75;100375.91;4187747;28;20230;-31
2022/10/08 09:00:59;;;;;;;7.17;3.53;;;;;;;22.22;43.07;100416.34;4198757;28;20731;-32
2022/10/08 09:03:20;;;;;;;9.10;3.20;;;;;;;21.64;44.75;100444.38;4190437;28;20238;-31
2022/10/08 09:05:24;;;;;;;16.03;3.90;;;;;;;21.86;44.52;100434.06;4196006;28;20262;-32
2022/10/08 09:07:33;;;;;;;8.63;3.60;;;;;;;21.26;45.60;100450.56;4189435;28;20246;-33
2022/10/08 09:09:43;;;;;;;7.57;3.30;;;;;;;22.01;44.19;100393.16;4186281;28;20270;-31
2022/10/08 09:11:45;;;;;;;8.87;3.43;;;;;;;21.73;44.03;100426.84;4192440;28;20671;-31
2022/10/08 09:13:56;;;;;;;9.10;3.53;;;;;;;22.67;42.59;100369.25;4191437;28;20313;-32
2022/10/08 09:15:58;;;;;;;10.33;3.70;;;;;;;21.51;43.93;100442.56;4196770;28;20700;-33
2022/10/08 09:18:02;;;;;;;8.77;3.20;;;;;;;21.99;43.69;100422.31;4193552;28;20329;-32
2022/10/08 09:20:04;;;;;;;7.60;3.13;;;;;;;22.42;42.48;100405.38;4188153;28;20231;-31
2022/10/08 09:22:38;;;;;;;10.17;3.03;;;;;;;22.88;41.57;100376.16;4195795;28;20275;-32
2022/10/08 09:24:40;;;;;;;6.00;2.43;;;;;;;21.65;43.22;100459.56;4193647;28;20676;-31
2022/10/08 09:26:42;;;;;;;6.27;3.03;;;;;;;21.63;43.08;100452.72;4196121;28;20263;-32
2022/10/08 09:28:48;;;;;;;10.07;3.67;;;;;;;21.95;42.27;100422.97;4197143;28;20721;-31
2022/10/08 09:30:50;;;;;;;9.30;3.33;;;;;;;22.09;42.76;100428.09;4193909;28;20228;-30
2022/10/08 09:32:54;;;;;;;8.90;4.03;;;;;;;21.65;44.62;100447.94;4194741;28;20314;-32
2022/10/08 09:34:56;;;;;;;10.07;3.80;;;;;;;21.44;44.90;100440.91;4192377;28;20313;-32
2022/10/08 09:37:00;;;;;;;11.87;3.77;;;;;;;22.15;43.57;100377.63;4192470;28;20250;-32